Time;durP1;ratioP1;P1;durP2;ratioP2;P2;SDS_P1;SDS_P2;PMS_P1;PMS_P2;Temp;Humidity;BMP_temperature;BMP_pressure;BME280_temperature;BME280_humidity;BME280_pressure;Samples;Min_cycle;Max_cycle;Signal;HPM_P1;HPM_P2
2023/06/28 00:02:22;;;;;;;0.05;0.00;;;13.90;99.90;;;;;;5018555;28;20040;-68
2023/06/28 00:04:48;;;;;;;0.00;0.00;;;14.00;99.90;;;;;;5016012;28;20060;-68
2023/06/28 00:07:15;;;;;;;0.00;0.00;;;14.00;99.90;;;;;;4995528;28;20112;-68
2023/06/28 00:09:41;;;;;;;0.00;0.00;;;14.00;99.90;;;;;;5020801;28;20045;-68
2023/06/28 00:12:07;;;;;;;0.00;0.00;;;13.90;99.90;;;;;;5000754;28;20045;-67
2023/06/28 00:14:33;;;;;;;0.00;0.00;;;14.00;99.90;;;;;;4997075;28;20042;-68
2023/06/28 00:16:59;;;;;;;0.15;0.00;;;14.00;99.90;;;;;;4992035;28;20125;-67
2023/06/28 00:19:28;;;;;;;0.00;0.00;;;13.90;99.90;;;;;;5018884;28;20099;-68
2023/06/28 00:21:55;;;;;;;0.00;0.00;;;13.90;99.90;;;;;;4999732;28;20042;-68
2023/06/28 00:24:21;;;;;;;0.00;0.00;;;13.90;99.90;;;;;;5017929;28;20479;-68
2023/06/28 00:26:46;;;;;;;0.00;0.00;;;13.90;99.90;;;;;;5011726;28;20128;-67
2023/06/28 00:29:12;;;;;;;0.00;0.00;;;13.90;99.90;;;;;;4987099;28;20041;-68
2023/06/28 00:31:38;;;;;;;0.00;0.00;;;13.80;99.90;;;;;;5018508;28;20086;-67
2023/06/28 00:34:04;;;;;;;0.00;0.00;;;13.90;99.90;;;;;;4995866;28;20041;-67
2023/06/28 00:36:29;;;;;;;0.00;0.00;;;13.90;99.90;;;;;;4995054;28;20073;-68
2023/06/28 00:38:55;;;;;;;0.00;0.00;;;13.90;99.90;;;;;;5001233;28;20042;-68
2023/06/28 00:41:21;;;;;;;0.00;0.00;;;13.90;99.90;;;;;;4995224;28;20046;-67
2023/06/28 00:43:46;;;;;;;0.00;0.00;;;13.90;99.90;;;;;;4995840;28;20042;-68
2023/06/28 00:46:12;;;;;;;0.10;0.10;;;13.90;99.90;;;;;;5003518;28;20425;-68
2023/06/28 00:48:38;;;;;;;0.00;0.00;;;13.90;99.90;;;;;;4993897;28;20074;-68
2023/06/28 00:51:04;;;;;;;0.00;0.00;;;13.90;99.90;;;;;;5001744;28;20044;-68
2023/06/28 00:53:30;;;;;;;0.00;0.00;;;13.90;99.90;;;;;;5004485;28;20111;-68
2023/06/28 00:55:57;;;;;;;0.00;0.00;;;13.90;99.90;;;;;;4995885;28;20038;-67
2023/06/28 00:58:25;;;;;;;0.00;0.00;;;13.90;99.90;;;;;;5015404;28;20053;-68
2023/06/28 01:00:51;;;;;;;0.00;0.00;;;13.90;99.90;;;;;;5004624;28;20512;-68
2023/06/28 01:03:18;;;;;;;0.00;0.00;;;13.90;99.90;;;;;;4992386;28;20196;-68
2023/06/28 01:05:57;;;;;;;0.00;0.00;;;13.80;99.90;;;;;;5015940;28;20049;-67
2023/06/28 01:08:24;;;;;;;0.00;0.00;;;13.80;99.90;;;;;;5004150;28;20087;-67
2023/06/28 01:10:51;;;;;;;0.00;0.00;;;13.80;99.90;;;;;;4995803;28;20045;-68
2023/06/28 01:13:18;;;;;;;0.00;0.00;;;13.80;99.90;;;;;;5023088;28;20102;-68
2023/06/28 01:15:44;;;;;;;0.00;0.00;;;13.80;99.90;;;;;;5015152;28;20049;-68
2023/06/28 01:18:10;;;;;;;0.00;0.00;;;13.80;99.90;;;;;;4998197;28;20046;-68
2023/06/28 01:20:37;;;;;;;0.00;0.00;;;13.80;99.90;;;;;;4999041;28;20098;-69
2023/06/28 01:23:03;;;;;;;0.00;0.00;;;13.70;99.90;;;;;;4988603;28;20450;-68
2023/06/28 01:25:29;;;;;;;0.00;0.00;;;13.70;99.90;;;;;;5015329;28;20246;-69
2023/06/28 01:27:56;;;;;;;0.00;0.00;;;13.70;99.90;;;;;;4985484;28;20059;-69
2023/06/28 01:30:23;;;;;;;0.00;0.00;;;13.70;99.90;;;;;;5012349;28;20045;-68
2023/06/28 01:32:49;;;;;;;0.00;0.00;;;13.60;99.90;;;;;;4989487;28;20274;-69
2023/06/28 01:35:15;;;;;;;0.00;0.00;;;13.60;99.90;;;;;;5011142;28;20048;-68
2023/06/28 01:37:42;;;;;;;0.00;0.00;;;13.60;99.90;;;;;;4997698;28;20139;-68
2023/06/28 01:40:10;;;;;;;0.08;0.00;;;13.60;99.90;;;;;;4996373;28;20073;-69
2023/06/28 01:42:37;;;;;;;0.00;0.00;;;13.50;99.90;;;;;;4993354;28;20046;-69
2023/06/28 01:45:03;;;;;;;0.00;0.00;;;13.50;99.90;;;;;;5000162;28;20034;-69
2023/06/28 01:47:29;;;;;;;0.00;0.00;;;13.50;99.90;;;;;;5015404;28;20034;-68
2023/06/28 01:49:56;;;;;;;0.00;0.00;;;13.40;99.90;;;;;;4994699;28;20116;-68
2023/06/28 01:52:22;;;;;;;0.00;0.00;;;13.40;99.90;;;;;;4975006;28;20045;-68
2023/06/28 01:54:48;;;;;;;0.00;0.00;;;13.30;99.90;;;;;;5001785;28;20046;-69
2023/06/28 01:57:13;;;;;;;0.00;0.00;;;13.30;99.90;;;;;;5013448;28;20062;-69
2023/06/28 01:59:39;;;;;;;0.00;0.00;;;13.30;99.90;;;;;;5013258;28;20061;-69
2023/06/28 02:02:05;;;;;;;1.95;0.30;;;13.30;99.90;;;;;;4984850;28;20042;-69
2023/06/28 02:04:31;;;;;;;0.00;0.00;;;13.40;99.90;;;;;;4997693;28;20129;-69
2023/06/28 02:06:57;;;;;;;0.00;0.00;;;13.30;99.90;;;;;;4996343;28;20075;-69
2023/06/28 02:09:22;;;;;;;0.00;0.00;;;13.30;99.90;;;;;;5012951;28;20049;-67
2023/06/28 02:11:48;;;;;;;0.10;0.10;;;13.40;99.90;;;;;;5009243;28;20085;-67
2023/06/28 02:14:14;;;;;;;0.10;0.00;;;13.30;99.90;;;;;;5021144;28;20117;-68
2023/06/28 02:16:41;;;;;;;0.10;0.03;;;13.30;99.90;;;;;;5014473;28;20100;-68
2023/06/28 02:19:12;;;;;;;0.00;0.00;;;13.30;99.90;;;;;;4991735;28;20137;-69
2023/06/28 02:21:40;;;;;;;0.00;0.00;;;13.40;99.90;;;;;;4995278;28;20408;-68
2023/06/28 02:24:08;;;;;;;0.00;0.00;;;13.40;99.90;;;;;;5001949;28;20121;-67
2023/06/28 02:26:35;;;;;;;0.00;0.00;;;13.40;99.90;;;;;;4996700;28;20379;-68
2023/06/28 02:29:01;;;;;;;0.00;0.00;;;13.40;99.90;;;;;;5000902;28;20050;-69
2023/06/28 02:31:27;;;;;;;0.00;0.00;;;13.40;99.90;;;;;;5021294;28;20038;-68
2023/06/28 02:33:52;;;;;;;0.32;0.20;;;13.50;99.90;;;;;;4997714;28;20587;-68
2023/06/28 02:36:18;;;;;;;0.00;0.00;;;13.40;99.90;;;;;;4994336;28;20077;-68
2023/06/28 02:38:44;;;;;;;0.00;0.00;;;13.40;99.90;;;;;;4990339;28;20041;-68
2023/06/28 02:41:10;;;;;;;0.00;0.00;;;13.50;99.90;;;;;;5006272;28;20389;-68
2023/06/28 02:43:36;;;;;;;0.00;0.00;;;13.50;99.90;;;;;;5000927;28;20048;-68
2023/06/28 02:46:02;;;;;;;0.10;0.10;;;13.50;99.90;;;;;;4996510;28;20045;-68
2023/06/28 02:48:27;;;;;;;0.00;0.00;;;13.50;99.90;;;;;;4995391;28;20044;-68
2023/06/28 02:50:53;;;;;;;0.00;0.00;;;13.50;99.90;;;;;;4999307;28;20045;-68
2023/06/28 02:53:19;;;;;;;0.20;0.00;;;13.40;99.90;;;;;;5020675;28;20435;-68
2023/06/28 02:55:45;;;;;;;0.10;0.10;;;13.40;99.90;;;;;;5013955;28;20065;-68
2023/06/28 02:58:10;;;;;;;0.00;0.00;;;13.40;99.90;;;;;;5020345;28;20048;-68
2023/06/28 03:00:38;;;;;;;0.00;0.00;;;13.40;99.90;;;;;;5005010;28;20167;-68
2023/06/28 03:03:08;;;;;;;0.00;0.00;;;13.50;99.90;;;;;;5000026;28;20501;-68
2023/06/28 03:05:34;;;;;;;0.00;0.00;;;13.40;99.90;;;;;;5005981;28;20067;-68
2023/06/28 03:07:59;;;;;;;0.00;0.00;;;13.50;99.90;;;;;;4990820;28;20038;-68
2023/06/28 03:10:25;;;;;;;0.00;0.00;;;13.50;99.90;;;;;;5006977;28;20521;-68
2023/06/28 03:12:51;;;;;;;0.00;0.00;;;13.50;99.90;;;;;;5005235;28;20536;-68
2023/06/28 03:15:17;;;;;;;0.00;0.00;;;13.60;99.90;;;;;;5023753;28;20063;-67
2023/06/28 03:17:42;;;;;;;0.17;0.00;;;13.60;99.90;;;;;;5012383;28;20099;-68
2023/06/28 03:20:09;;;;;;;0.00;0.00;;;13.60;99.90;;;;;;4996127;28;20752;-67
2023/06/28 03:22:34;;;;;;;0.30;0.00;;;13.70;99.90;;;;;;5004352;28;20041;-67
2023/06/28 03:25:00;;;;;;;0.00;0.00;;;13.70;99.90;;;;;;4999913;28;20092;-68
2023/06/28 03:27:26;;;;;;;0.00;0.00;;;13.80;99.90;;;;;;5005709;28;20045;-68
2023/06/28 03:29:51;;;;;;;0.03;0.00;;;13.80;99.90;;;;;;5001457;28;20490;-67
2023/06/28 03:32:17;;;;;;;0.15;0.10;;;13.80;99.90;;;;;;5015367;28;20051;-68
2023/06/28 03:34:43;;;;;;;0.00;0.00;;;13.80;99.90;;;;;;4999694;28;20037;-67
2023/06/28 03:37:09;;;;;;;0.00;0.00;;;13.80;99.90;;;;;;4996201;28;20442;-67
2023/06/28 03:39:34;;;;;;;3.15;0.32;;;13.90;99.90;;;;;;5001240;28;20120;-67
2023/06/28 03:42:00;;;;;;;0.00;0.00;;;13.90;99.90;;;;;;5004721;28;20128;-68
2023/06/28 03:44:26;;;;;;;0.00;0.00;;;14.00;99.90;;;;;;5002550;28;20058;-68
2023/06/28 03:46:51;;;;;;;1.65;0.20;;;14.00;99.90;;;;;;4996691;28;20128;-69
2023/06/28 03:49:17;;;;;;;0.00;0.00;;;14.00;99.90;;;;;;5018969;28;20052;-69
2023/06/28 03:51:43;;;;;;;0.00;0.00;;;14.00;99.90;;;;;;5016837;28;20496;-70
2023/06/28 03:54:08;;;;;;;0.00;0.00;;;14.10;99.90;;;;;;4999924;28;20030;-69
2023/06/28 03:56:34;;;;;;;0.00;0.00;;;14.10;99.90;;;;;;4991833;28;20042;-69
2023/06/28 03:59:00;;;;;;;0.00;0.00;;;14.10;99.90;;;;;;4983674;28;20084;-69
2023/06/28 04:01:25;;;;;;;0.00;0.00;;;14.20;99.90;;;;;;5003736;28;20132;-68
2023/06/28 04:03:51;;;;;;;0.00;0.00;;;14.20;99.90;;;;;;5012238;28;20038;-68
2023/06/28 04:06:17;;;;;;;0.00;0.00;;;14.20;99.90;;;;;;4982597;28;20111;-68
2023/06/28 04:08:45;;;;;;;0.00;0.00;;;14.30;99.90;;;;;;5019991;28;20045;-68
2023/06/28 04:11:11;;;;;;;0.10;0.10;;;14.30;99.90;;;;;;4995774;28;20391;-68
2023/06/28 04:13:37;;;;;;;0.00;0.00;;;14.30;99.90;;;;;;4984383;28;20029;-68
2023/06/28 04:16:03;;;;;;;0.00;0.00;;;14.30;99.90;;;;;;4999524;28;20387;-68
2023/06/28 04:18:28;;;;;;;0.00;0.00;;;14.30;99.90;;;;;;5020367;28;20034;-69
2023/06/28 04:20:54;;;;;;;0.13;0.10;;;14.30;99.90;;;;;;5017208;28;20375;-68
2023/06/28 04:23:20;;;;;;;0.00;0.00;;;14.30;99.90;;;;;;4992450;28;20041;-67
2023/06/28 04:25:46;;;;;;;0.00;0.00;;;14.30;99.90;;;;;;4997662;28;20103;-67
2023/06/28 04:28:12;;;;;;;0.00;0.00;;;14.30;99.90;;;;;;5020766;28;20571;-67
2023/06/28 04:30:38;;;;;;;0.00;0.00;;;14.30;99.90;;;;;;4997129;28;20426;-68
2023/06/28 04:33:04;;;;;;;0.00;0.00;;;14.30;99.90;;;;;;4995587;28;20034;-68
2023/06/28 04:35:34;;;;;;;0.10;0.10;;;14.30;99.90;;;;;;4998727;28;20097;-68
2023/06/28 04:38:03;;;;;;;0.00;0.00;;;14.30;99.90;;;;;;5005078;28;20615;-67
2023/06/28 04:40:35;;;;;;;0.00;0.00;;;14.30;99.90;;;;;;5001491;28;20096;-67
2023/06/28 04:43:01;;;;;;;0.00;0.00;;;14.30;99.90;;;;;;5011412;28;20549;-67
2023/06/28 04:45:36;;;;;;;0.17;0.00;;;14.30;99.90;;;;;;5003390;28;20137;-67
2023/06/28 04:48:05;;;;;;;0.00;0.00;;;14.30;99.90;;;;;;5004028;28;20046;-67
2023/06/28 04:50:34;;;;;;;0.00;0.00;;;14.30;99.90;;;;;;5014633;28;20030;-67
2023/06/28 04:53:03;;;;;;;0.00;0.00;;;14.20;99.90;;;;;;4997762;28;20393;-67
2023/06/28 04:55:32;;;;;;;0.00;0.00;;;14.30;99.90;;;;;;5014646;28;20033;-68
2023/06/28 04:58:05;;;;;;;0.03;0.00;;;14.30;99.90;;;;;;5019342;28;20502;-67
2023/06/28 05:00:34;;;;;;;0.00;0.00;;;14.30;99.90;;;;;;4994904;28;20052;-67
2023/06/28 05:03:00;;;;;;;0.00;0.00;;;14.30;99.90;;;;;;5013420;28;20096;-67
2023/06/28 05:05:27;;;;;;;0.05;0.05;;;14.30;99.90;;;;;;5000952;28;20045;-67
2023/06/28 05:07:53;;;;;;;0.00;0.00;;;14.40;99.90;;;;;;5000159;28;20046;-67
2023/06/28 05:10:23;;;;;;;0.00;0.00;;;14.40;99.90;;;;;;4978188;28;20492;-67
2023/06/28 05:12:51;;;;;;;0.00;0.00;;;14.50;99.90;;;;;;5020920;28;20385;-67
2023/06/28 05:15:18;;;;;;;0.00;0.00;;;14.60;99.90;;;;;;5022229;28;20054;-67
2023/06/28 05:17:44;;;;;;;0.10;0.10;;;14.60;99.90;;;;;;5002648;28;20107;-67
2023/06/28 05:20:11;;;;;;;0.00;0.00;;;14.70;99.90;;;;;;5020670;28;20494;-68
2023/06/28 05:22:49;;;;;;;0.00;0.00;;;14.80;99.90;;;;;;4994517;28;20069;-67
2023/06/28 05:25:16;;;;;;;0.00;0.00;;;14.80;99.90;;;;;;5015715;28;20112;-68
2023/06/28 05:27:42;;;;;;;0.00;0.00;;;14.90;99.90;;;;;;5019277;28;20029;-68
2023/06/28 05:30:09;;;;;;;0.00;0.00;;;14.90;99.90;;;;;;5012674;28;20049;-67
2023/06/28 05:32:35;;;;;;;0.00;0.00;;;15.00;99.90;;;;;;4990446;28;20060;-68
2023/06/28 05:35:03;;;;;;;0.00;0.00;;;15.00;99.90;;;;;;4998639;28;20181;-68
2023/06/28 05:37:29;;;;;;;0.00;0.00;;;15.10;99.90;;;;;;4994712;28;20056;-68
2023/06/28 05:39:54;;;;;;;0.22;0.17;;;15.10;99.90;;;;;;4993886;28;20038;-68
2023/06/28 05:42:21;;;;;;;0.10;0.10;;;15.10;99.90;;;;;;5013607;28;20451;-68
2023/06/28 05:44:47;;;;;;;0.00;0.00;;;15.20;99.90;;;;;;5012328;28;20046;-68
2023/06/28 05:47:13;;;;;;;0.00;0.00;;;15.20;99.90;;;;;;4997709;28;20049;-68
2023/06/28 05:49:41;;;;;;;0.03;0.00;;;15.20;99.90;;;;;;4997404;28;20305;-68
2023/06/28 05:52:07;;;;;;;0.00;0.00;;;15.20;99.90;;;;;;4997922;28;20037;-68
2023/06/28 05:54:33;;;;;;;0.00;0.00;;;15.20;99.90;;;;;;4998381;28;20037;-68
2023/06/28 05:56:59;;;;;;;0.00;0.00;;;15.20;99.90;;;;;;5015363;28;20041;-68
2023/06/28 05:59:27;;;;;;;0.00;0.00;;;15.30;99.90;;;;;;5002949;28;20052;-68
2023/06/28 06:01:53;;;;;;;0.00;0.00;;;15.20;99.90;;;;;;4999463;28;20069;-68
2023/06/28 06:04:18;;;;;;;0.10;0.00;;;15.30;99.90;;;;;;4998837;28;20556;-68
2023/06/28 06:06:44;;;;;;;0.00;0.00;;;15.30;99.90;;;;;;5012893;28;20181;-68
2023/06/28 06:09:10;;;;;;;0.00;0.00;;;15.40;99.90;;;;;;5008498;28;20394;-68
2023/06/28 06:11:36;;;;;;;0.00;0.00;;;15.40;99.90;;;;;;5020776;28;20041;-68
2023/06/28 06:14:01;;;;;;;0.00;0.00;;;15.40;99.90;;;;;;4998921;28;20044;-68
2023/06/28 06:16:27;;;;;;;0.10;0.10;;;15.50;99.90;;;;;;5016394;28;20057;-67
2023/06/28 06:18:53;;;;;;;0.00;0.00;;;15.50;99.90;;;;;;5006615;28;20061;-67
2023/06/28 06:21:18;;;;;;;0.00;0.00;;;15.60;99.90;;;;;;4997675;28;20135;-68
2023/06/28 06:23:44;;;;;;;0.00;0.00;;;15.60;99.90;;;;;;5006461;28;20116;-68
2023/06/28 06:26:10;;;;;;;0.00;0.00;;;15.70;99.90;;;;;;5014831;28;20034;-68
2023/06/28 06:28:35;;;;;;;0.00;0.00;;;15.70;99.90;;;;;;5013158;28;20104;-66
2023/06/28 06:31:01;;;;;;;0.00;0.00;;;15.70;99.90;;;;;;5018442;28;20574;-66
2023/06/28 06:33:27;;;;;;;0.47;0.30;;;15.70;99.90;;;;;;5003943;28;20037;-67
2023/06/28 06:35:52;;;;;;;0.00;0.00;;;15.80;99.90;;;;;;4992904;28;20652;-67
2023/06/28 06:38:18;;;;;;;0.00;0.00;;;15.80;99.90;;;;;;4994452;28;20546;-67
2023/06/28 06:40:45;;;;;;;0.10;0.00;;;15.80;99.90;;;;;;5016697;28;20056;-67
2023/06/28 06:43:10;;;;;;;0.00;0.00;;;15.80;99.90;;;;;;5019081;28;20049;-67
2023/06/28 06:45:36;;;;;;;0.10;0.10;;;15.90;99.90;;;;;;5011903;28;20045;-66
2023/06/28 06:48:02;;;;;;;0.00;0.00;;;15.90;99.90;;;;;;5011520;28;20095;-67
2023/06/28 06:50:27;;;;;;;0.00;0.00;;;15.90;99.90;;;;;;5022385;28;20034;-67
2023/06/28 06:52:53;;;;;;;0.00;0.00;;;16.00;99.90;;;;;;5019860;28;20041;-67
2023/06/28 06:55:19;;;;;;;0.00;0.00;;;16.00;99.90;;;;;;5011615;28;20041;-67
2023/06/28 06:57:45;;;;;;;0.10;0.05;;;16.00;99.90;;;;;;5017578;28;20038;-68
2023/06/28 07:00:11;;;;;;;0.00;0.00;;;16.00;99.90;;;;;;4999440;28;20056;-67
2023/06/28 07:02:37;;;;;;;0.10;0.10;;;16.10;99.90;;;;;;4999398;28;20370;-68
2023/06/28 07:05:03;;;;;;;0.00;0.00;;;16.20;99.90;;;;;;5018179;28;20099;-68
2023/06/28 07:07:29;;;;;;;0.00;0.00;;;16.20;99.90;;;;;;5017516;28;20477;-68
2023/06/28 07:09:54;;;;;;;0.00;0.00;;;16.30;99.90;;;;;;5003229;28;20038;-68
2023/06/28 07:12:21;;;;;;;0.00;0.00;;;16.40;99.90;;;;;;4984531;28;20525;-67
2023/06/28 07:14:47;;;;;;;0.10;0.00;;;16.40;99.90;;;;;;5024839;28;20088;-67
2023/06/28 07:17:12;;;;;;;0.00;0.00;;;16.40;99.90;;;;;;5018248;28;20116;-67
2023/06/28 07:19:38;;;;;;;0.00;0.00;;;16.50;99.90;;;;;;5020906;28;20045;-67
2023/06/28 07:22:04;;;;;;;0.00;0.00;;;16.50;99.90;;;;;;4996949;28;20538;-68
2023/06/28 07:24:29;;;;;;;0.00;0.00;;;16.50;99.90;;;;;;5007650;28;20060;-68
2023/06/28 07:26:55;;;;;;;0.05;0.03;;;16.50;99.90;;;;;;4983427;28;20487;-68
2023/06/28 07:29:21;;;;;;;0.20;0.20;;;16.50;99.90;;;;;;5017980;28;20049;-67
2023/06/28 07:31:46;;;;;;;0.00;0.00;;;16.60;99.90;;;;;;5003898;28;20052;-67
2023/06/28 07:34:14;;;;;;;0.00;0.00;;;16.60;99.90;;;;;;5019889;28;20100;-67
2023/06/28 07:36:40;;;;;;;0.00;0.00;;;16.60;99.90;;;;;;5005560;28;20056;-67
2023/06/28 07:39:06;;;;;;;0.40;0.15;;;16.60;99.90;;;;;;5002616;28;20045;-68
2023/06/28 07:41:32;;;;;;;0.30;0.25;;;16.60;99.90;;;;;;5006579;28;20550;-68
2023/06/28 07:43:58;;;;;;;0.00;0.00;;;16.60;99.90;;;;;;4998538;28;20134;-68
2023/06/28 07:46:24;;;;;;;0.10;0.10;;;16.60;99.90;;;;;;5018023;28;20555;-67
2023/06/28 07:48:52;;;;;;;0.00;0.00;;;16.60;99.90;;;;;;5003114;28;20145;-68
2023/06/28 07:51:18;;;;;;;0.20;0.20;;;16.70;99.90;;;;;;5016799;28;20038;-68
2023/06/28 07:53:45;;;;;;;0.00;0.00;;;16.60;99.90;;;;;;5012182;28;20038;-68
2023/06/28 07:56:12;;;;;;;0.00;0.00;;;16.60;99.90;;;;;;4995735;28;20052;-68
2023/06/28 07:58:38;;;;;;;0.00;0.00;;;16.60;99.90;;;;;;5000566;28;20050;-68
2023/06/28 08:01:03;;;;;;;0.00;0.00;;;16.60;99.90;;;;;;4997976;28;20516;-68
2023/06/28 08:03:29;;;;;;;0.00;0.00;;;16.60;99.90;;;;;;5014193;28;20033;-68
2023/06/28 08:05:55;;;;;;;0.10;0.10;;;16.60;99.90;;;;;;5002045;28;20129;-67
2023/06/28 08:08:20;;;;;;;0.00;0.00;;;16.60;99.90;;;;;;5003883;28;20064;-68
2023/06/28 08:10:46;;;;;;;0.43;0.28;;;16.60;99.90;;;;;;5017658;28;20500;-68
2023/06/28 08:13:12;;;;;;;0.30;0.30;;;16.60;99.90;;;;;;5020350;28;20433;-68
2023/06/28 08:15:38;;;;;;;0.00;0.00;;;16.60;99.90;;;;;;5022149;28;20037;-67
2023/06/28 08:18:07;;;;;;;0.25;0.08;;;16.70;99.90;;;;;;5018595;28;20037;-68
2023/06/28 08:20:33;;;;;;;0.00;0.00;;;16.70;99.90;;;;;;5011036;28;20474;-68
2023/06/28 08:22:59;;;;;;;0.17;0.10;;;16.90;99.90;;;;;;4996144;28;20049;-68
2023/06/28 08:25:25;;;;;;;0.00;0.00;;;16.90;99.90;;;;;;5015824;28;20482;-67
2023/06/28 08:27:50;;;;;;;0.00;0.00;;;17.00;99.90;;;;;;5001217;28;20049;-67
2023/06/28 08:30:16;;;;;;;0.17;0.13;;;17.10;99.90;;;;;;5012347;28;20897;-67
2023/06/28 08:32:43;;;;;;;0.17;0.15;;;17.20;99.90;;;;;;5014008;28;20034;-67
2023/06/28 08:35:09;;;;;;;0.93;0.43;;;17.30;99.90;;;;;;4999907;28;20054;-67
2023/06/28 08:37:34;;;;;;;0.00;0.00;;;17.30;99.90;;;;;;5018602;28;20085;-68
2023/06/28 08:40:01;;;;;;;0.10;0.10;;;17.40;99.90;;;;;;4994595;28;20081;-67
2023/06/28 08:42:29;;;;;;;0.00;0.00;;;17.40;99.90;;;;;;5013935;28;20052;-67
2023/06/28 08:44:57;;;;;;;0.00;0.00;;;17.50;99.90;;;;;;5018177;28;20050;-67
2023/06/28 08:47:27;;;;;;;0.03;0.00;;;17.50;99.90;;;;;;5021717;28;20096;-67
2023/06/28 08:49:54;;;;;;;0.10;0.10;;;17.50;99.90;;;;;;4991648;28;20050;-67
2023/06/28 08:52:22;;;;;;;0.00;0.00;;;17.50;99.90;;;;;;4994586;28;20453;-67
2023/06/28 08:54:49;;;;;;;0.10;0.00;;;17.60;99.90;;;;;;5017941;28;20041;-67
2023/06/28 08:57:16;;;;;;;0.10;0.05;;;17.60;99.90;;;;;;5017062;28;20374;-67
2023/06/28 08:59:42;;;;;;;0.93;0.30;;;17.70;99.90;;;;;;5012680;28;20052;-67
2023/06/28 09:02:09;;;;;;;0.00;0.00;;;17.80;99.90;;;;;;5019285;28;20046;-67
2023/06/28 09:04:35;;;;;;;0.10;0.10;;;17.80;99.90;;;;;;5018809;28;20029;-67
2023/06/28 09:07:02;;;;;;;0.17;0.10;;;17.90;99.90;;;;;;4996374;28;20049;-67
2023/06/28 09:09:29;;;;;;;0.05;0.00;;;17.80;99.90;;;;;;5009010;28;20095;-66
2023/06/28 09:11:55;;;;;;;0.05;0.05;;;17.90;99.90;;;;;;4998087;28;20042;-67
2023/06/28 09:14:21;;;;;;;0.05;0.00;;;17.80;99.90;;;;;;4985774;28;20049;-67
2023/06/28 09:16:46;;;;;;;0.20;0.10;;;17.80;99.90;;;;;;4999373;28;20045;-66
2023/06/28 09:19:12;;;;;;;0.10;0.10;;;17.80;99.90;;;;;;4992915;28;20133;-66
2023/06/28 09:21:40;;;;;;;0.30;0.28;;;17.80;99.90;;;;;;5017198;28;20435;-66
2023/06/28 09:24:12;;;;;;;0.15;0.10;;;17.70;99.90;;;;;;5020701;28;20051;-66
2023/06/28 09:26:40;;;;;;;0.00;0.00;;;17.80;99.90;;;;;;5013203;28;20072;-67
2023/06/28 09:29:11;;;;;;;0.80;0.20;;;17.70;99.90;;;;;;5024306;28;20053;-66
2023/06/28 09:31:47;;;;;;;0.00;0.00;;;17.80;99.90;;;;;;4997741;28;20120;-66
2023/06/28 09:34:13;;;;;;;0.10;0.05;;;17.90;99.90;;;;;;5017086;28;20073;-66
2023/06/28 09:36:39;;;;;;;0.30;0.20;;;18.00;99.90;;;;;;5018818;28;20367;-66
2023/06/28 09:39:07;;;;;;;0.00;0.00;;;18.00;99.90;;;;;;5014457;28;20045;-66
2023/06/28 09:41:42;;;;;;;0.00;0.00;;;18.00;99.90;;;;;;5015405;28;20398;-66
2023/06/28 09:44:10;;;;;;;6.13;0.85;;;18.10;99.90;;;;;;5020822;28;20045;-66
2023/06/28 09:46:43;;;;;;;0.00;0.00;;;18.10;99.90;;;;;;5019779;28;20053;-67
2023/06/28 09:49:23;;;;;;;0.10;0.08;;;18.20;99.90;;;;;;5013203;28;20044;-66
2023/06/28 09:52:04;;;;;;;0.00;0.00;;;18.20;99.90;;;;;;5016434;28;20040;-66
2023/06/28 09:54:37;;;;;;;0.10;0.05;;;18.20;99.90;;;;;;5020084;28;20045;-66
2023/06/28 09:57:03;;;;;;;0.40;0.10;;;18.10;99.90;;;;;;4976838;28;20077;-65
2023/06/28 09:59:33;;;;;;;0.13;0.10;;;18.10;99.90;;;;;;4978290;28;20096;-65
2023/06/28 10:01:59;;;;;;;0.10;0.03;;;18.10;99.90;;;;;;5000118;28;20088;-66
2023/06/28 10:04:28;;;;;;;0.10;0.10;;;18.00;99.90;;;;;;5015056;28;20033;-65
2023/06/28 10:07:02;;;;;;;0.05;0.05;;;18.00;99.90;;;;;;5007902;28;20516;-65
2023/06/28 10:09:37;;;;;;;0.17;0.17;;;18.00;99.90;;;;;;4998260;28;20116;-65
2023/06/28 10:12:09;;;;;;;0.40;0.10;;;17.90;99.90;;;;;;5020053;28;20378;-66
2023/06/28 10:14:40;;;;;;;0.20;0.10;;;18.00;99.90;;;;;;4995522;28;20049;-65
2023/06/28 10:17:06;;;;;;;0.32;0.13;;;17.90;99.90;;;;;;4993893;28;20440;-66
2023/06/28 10:19:33;;;;;;;0.28;0.25;;;18.00;99.90;;;;;;5022592;28;20034;-66
2023/06/28 10:21:59;;;;;;;0.00;0.00;;;18.00;99.90;;;;;;5016433;28;20045;-66
2023/06/28 10:24:32;;;;;;;0.17;0.10;;;18.00;99.90;;;;;;5012953;28;20037;-65
2023/06/28 10:27:00;;;;;;;0.30;0.20;;;18.00;99.90;;;;;;5015167;28;20168;-65
2023/06/28 10:29:26;;;;;;;0.10;0.10;;;18.10;99.90;;;;;;5020666;28;20049;-65
2023/06/28 10:31:53;;;;;;;0.00;0.00;;;18.10;99.90;;;;;;5018906;28;20408;-66
2023/06/28 10:34:20;;;;;;;0.55;0.17;;;18.20;99.90;;;;;;4994171;28;20125;-66
2023/06/28 10:36:45;;;;;;;0.20;0.10;;;18.20;99.90;;;;;;5012721;28;20041;-65
2023/06/28 10:39:11;;;;;;;0.25;0.10;;;18.30;99.90;;;;;;5017478;28;20111;-65
2023/06/28 10:41:37;;;;;;;0.10;0.10;;;18.50;99.90;;;;;;4999782;28;20485;-65
2023/06/28 10:44:07;;;;;;;0.00;0.00;;;18.50;99.90;;;;;;5021114;28;20041;-67
2023/06/28 10:46:33;;;;;;;0.00;0.00;;;18.60;99.90;;;;;;5011624;28;20497;-66
2023/06/28 10:48:59;;;;;;;0.25;0.25;;;18.60;99.90;;;;;;5016251;28;20037;-66
2023/06/28 10:51:31;;;;;;;0.32;0.20;;;18.70;99.90;;;;;;5017315;28;20030;-66
2023/06/28 10:54:12;;;;;;;0.10;0.08;;;18.60;99.90;;;;;;5007091;28;20495;-66
2023/06/28 10:56:47;;;;;;;0.00;0.00;;;18.60;99.90;;;;;;5011979;28;20041;-66
2023/06/28 10:59:13;;;;;;;0.05;0.05;;;18.60;99.90;;;;;;5020927;28;20041;-66
2023/06/28 11:01:53;;;;;;;0.20;0.13;;;18.60;99.90;;;;;;5012706;28;20496;-65
2023/06/28 11:04:22;;;;;;;0.00;0.00;;;18.50;99.90;;;;;;4998527;28;20120;-66
2023/06/28 11:07:20;;;;;;;0.03;0.00;;;18.50;99.90;;;;;;4997150;28;20141;-66
2023/06/28 11:10:16;;;;;;;0.22;0.20;;;18.50;99.90;;;;;;5001993;28;20505;-67
2023/06/28 11:12:46;;;;;;;0.10;0.10;;;18.50;99.90;;;;;;5012943;28;20092;-67
2023/06/28 11:15:13;;;;;;;0.13;0.10;;;18.50;99.90;;;;;;5016777;28;20103;-65
2023/06/28 11:17:39;;;;;;;0.40;0.15;;;18.60;99.90;;;;;;5019196;28;20537;-66
2023/06/28 11:20:12;;;;;;;0.10;0.00;;;18.60;99.90;;;;;;4999648;28;20050;-66
2023/06/28 11:22:50;;;;;;;0.25;0.10;;;18.70;99.90;;;;;;5013167;28;20037;-66
2023/06/28 11:25:16;;;;;;;0.00;0.00;;;18.70;99.90;;;;;;5000440;28;20104;-66
2023/06/28 11:27:42;;;;;;;0.05;0.03;;;18.80;99.90;;;;;;5002862;28;20042;-66
2023/06/28 11:30:09;;;;;;;0.30;0.00;;;18.80;99.90;;;;;;4995892;28;20049;-67
2023/06/28 11:32:36;;;;;;;0.03;0.03;;;18.90;99.90;;;;;;5016333;28;20042;-66
2023/06/28 11:35:04;;;;;;;0.03;0.00;;;18.90;99.90;;;;;;5018132;28;20041;-67
2023/06/28 11:37:30;;;;;;;0.05;0.03;;;18.90;99.90;;;;;;5019178;28;20044;-66
2023/06/28 11:39:58;;;;;;;0.10;0.00;;;18.80;99.90;;;;;;5021439;28;20038;-67
2023/06/28 11:42:24;;;;;;;0.28;0.10;;;18.80;99.90;;;;;;5002726;28;20044;-66
2023/06/28 11:44:51;;;;;;;0.20;0.10;;;18.70;99.90;;;;;;5019509;28;20025;-66
2023/06/28 11:47:19;;;;;;;0.25;0.20;;;18.70;99.90;;;;;;5019718;28;20053;-67
2023/06/28 11:49:46;;;;;;;0.20;0.20;;;18.70;99.90;;;;;;4997482;28;20409;-67
2023/06/28 11:52:15;;;;;;;0.10;0.00;;;18.60;99.90;;;;;;4993584;28;20045;-67
2023/06/28 11:54:42;;;;;;;0.20;0.20;;;18.60;99.90;;;;;;5022094;28;20044;-66
2023/06/28 11:57:08;;;;;;;0.10;0.00;;;18.60;99.90;;;;;;5016407;28;20116;-67
2023/06/28 11:59:34;;;;;;;0.10;0.10;;;18.50;99.90;;;;;;4993459;28;20487;-67
2023/06/28 12:02:07;;;;;;;0.20;0.13;;;18.50;99.90;;;;;;4995657;28;20050;-66
2023/06/28 12:04:37;;;;;;;0.30;0.10;;;18.50;99.90;;;;;;5002164;28;20061;-67
2023/06/28 12:07:05;;;;;;;0.10;0.10;;;18.50;99.90;;;;;;5017949;28;20461;-67
2023/06/28 12:09:35;;;;;;;0.00;0.00;;;18.50;99.90;;;;;;5014297;28;20050;-67
2023/06/28 12:12:06;;;;;;;0.17;0.03;;;18.60;99.90;;;;;;5017073;28;20469;-67
2023/06/28 12:14:45;;;;;;;0.05;0.00;;;18.70;99.90;;;;;;5021376;28;20115;-67
2023/06/28 12:17:11;;;;;;;0.22;0.08;;;19.00;99.90;;;;;;5004725;28;20103;-67
2023/06/28 12:19:39;;;;;;;0.17;0.10;;;19.00;99.90;;;;;;5024933;28;20468;-66
2023/06/28 12:22:07;;;;;;;0.30;0.28;;;19.10;99.90;;;;;;5021705;28;20286;-67
2023/06/28 12:24:35;;;;;;;0.52;0.20;;;19.10;99.90;;;;;;5001404;28;20042;-67
2023/06/28 12:27:05;;;;;;;0.20;0.10;;;19.10;99.90;;;;;;4996478;28;20526;-67
2023/06/28 12:29:35;;;;;;;0.00;0.00;;;19.00;99.90;;;;;;5019996;28;20054;-67
2023/06/28 12:32:11;;;;;;;0.00;0.00;;;18.90;99.90;;;;;;4998100;28;20046;-67
2023/06/28 12:34:38;;;;;;;0.00;0.00;;;18.80;99.90;;;;;;5019452;28;20369;-67
2023/06/28 12:37:09;;;;;;;0.43;0.17;;;18.70;99.90;;;;;;5018690;28;20049;-67
2023/06/28 12:39:37;;;;;;;0.00;0.00;;;18.70;99.90;;;;;;5009491;28;20050;-67
2023/06/28 12:42:18;;;;;;;0.10;0.10;;;18.70;99.90;;;;;;5014361;28;20041;-67
2023/06/28 12:44:55;;;;;;;0.08;0.05;;;18.70;99.90;;;;;;5001502;28;20037;-68
2023/06/28 12:47:22;;;;;;;0.15;0.00;;;18.70;99.90;;;;;;4997694;28;20068;-68
2023/06/28 12:49:48;;;;;;;0.20;0.03;;;18.80;99.90;;;;;;4995459;28;20041;-68